Terminal Aerodrome Forecast
Issued by NWS

Home | Current Version | Previous Version | Text Only | Print | Product List | Glossary On
Versions: 1 2 3 4 5 6 7 8 9 10 11 12 13 14 15 16
000
FTUS46 KPDT 050520
TAFRDM
TAF
KRDM 050520Z 0506/0606 VRB06KT P6SM VCSH SCT050 BKN100
     FM050900 VRB04KT P6SM SCT050 BKN100
     FM051900 32008KT P6SM -SHRA BKN050 BKN100
      TEMPO 0522/0602 -TSRA BKN050CB OVC100=

USA.gov is the U.S. government's official web portal to all federal, state and local government web resources and services.